Meteo Giornale » Osservazioni meteo Stati Uniti (USA) » Lakeland Reg
ore: 05:55 - Osservazioni Meteo Lakeland Reg
Lat. 27° 59' N Lon. 82° 1' W Alt. 43 metri s.l.m.
25 °C
Foschia
Temp. 24 Ore
24 °C
34 °C
Nord
5.5 Km/h
Dew point 25 °C
Umidità 100 %
Visibilità 5 Km
Il sole sorge alle ore 07:06
Il sole tramonta alle ore 19:49
| Data e Ora | Cielo e Fenomeni | T °C | DP °C | Um. % | Pres. hPa | Vis. km | Vento km/h | |
|---|---|---|---|---|---|---|---|---|
| Oggi h: 05:55 | Foschia | 25 | 25 | 100 | 1016 | 5 | N 5.5 | |
| Oggi h: 05:50 | Foschia | 25 | 25 | 100 | 1016 | 2 | N 5.5 | |
| Oggi h: 05:35 | Foschia | 24 | 24 | 100 | 1016 | 2 | N 0 | |
| Oggi h: 05:15 | Foschia | 25 | 25 | 100 | 1016 | 10 | N/NE 7.4 | |
| Oggi h: 04:55 | Molto Nuvoloso | 24 | 24 | 100 | 1015 | 10 | N 0 | |
| Oggi h: 04:50 | Molto Nuvoloso | 24 | 24 | 100 | 1015 | 10 | N 0 | |
| Oggi h: 04:35 | Nuvoloso | 24 | 24 | 100 | 1015 | 10 | N 0 | |
| Oggi h: 04:15 | Poco Nuvoloso | 24 | 24 | 100 | 1015 | 10 | N 0 | |
| Oggi h: 03:55 | Sereno | 24 | 24 | 100 | 1016 | 10 | N 0 | |
| Oggi h: 03:50 | Sereno | 24 | 24 | 100 | 1016 | 10 | N 0 | |
| Oggi h: 03:35 | Sereno | 24 | 24 | 100 | 1016 | 10 | N 0 | |
| Oggi h: 03:15 | Sereno | 25 | 25 | 100 | 1016 | 10 | N 0 | |
| Oggi h: 02:55 | Sereno | 25 | 25 | 100 | 1016 | 10 | N 5.5 | |
| Oggi h: 02:50 | Sereno | 25 | 25 | 100 | 1016 | 10 | N/NE 7.4 | |
| Oggi h: 02:35 | Sereno | 24 | 24 | 100 | 1016 | 10 | N 5.5 | |
| Oggi h: 02:15 | Sereno | 25 | 25 | 100 | 1017 | 10 | N 5.5 | |
| Oggi h: 01:55 | Sereno | 25 | 25 | 100 | 1017 | 10 | N 5.5 | |
| Oggi h: 01:50 | Sereno | 25 | 25 | 100 | 1017 | 10 | N 0 | |
| Oggi h: 01:35 | Sereno | 25 | 25 | 100 | 1017 | 10 | N 5.5 | |
| Oggi h: 01:15 | Sereno | 25 | 25 | 100 | 1017 | 10 | N 5.5 | |
| Oggi h: 00:55 | Nuvoloso | 25 | 25 | 100 | 1017 | 14 | N 7.4 | |
| Oggi h: 00:50 | Sereno | 25 | 25 | 100 | 1017 | 14 | N 7.4 | |
| Oggi h: 00:35 | Coperto | 25 | 25 | 100 | 1018 | 14 | N 7.4 | |
| Oggi h: 00:15 | Coperto | 25 | 25 | 100 | 1018 | 10 | N 7.4 | |
| Ieri h: 23:50 | Sereno | 25 | 25 | 100 | 1018 | 14 | N 5.5 | |
| Ieri h: 22:50 | Sereno | 25 | 25 | 100 | 1018 | 10 | N 0 | |
| Ieri h: 21:50 | Sereno | 26 | 26 | 100 | 1017 | 10 | N 0 | |
| Ieri h: 19:50 | Sereno | 26 | 25 | 94 | 1017 | 10 | N 0 | |
| Ieri h: 18:50 | Pioggia Foschia | 25 | 25 | 100 | 1017 | 10 | NE 7.4 | |
| Ieri h: 17:50 | Pioggia Foschia | 25 | 25 | 100 | 1016 | 10 | E 9.3 | |
| Ieri h: 16:40 | Temporale Foschia | 26 | 25 | 94 | 1017 | 3 | NE 29.6 | |
| Ieri h: 15:50 | Molto Nuvoloso | 33 | 23 | 55 | 1016 | 10 | S/SE 7.4 | |
| Ieri h: 14:50 | Molto Nuvoloso | 34 | 24 | 56 | 1016 | 10 | N 0 | |
| Ieri h: 11:50 | Nuvoloso | 31 | 24 | 66 | 1018 | 10 | N 0 | |
| Ieri h: 10:50 | Nuvoloso | 30 | 25 | 74 | 1018 | 10 | N 5.5 | |
| Ieri h: 09:50 | Poco Nuvoloso | 28 | 25 | 83 | 1018 | 10 | N 0 | |
| Ieri h: 08:50 | Sereno | 27 | 25 | 88 | 1018 | 10 | N 0 | |
| Ieri h: 07:50 | Sereno | 24 | 24 | 100 | 1017 | 10 | N 0 | |
| Ieri h: 06:50 | Sereno | 24 | 24 | 100 | 1016 | 10 | N 0 | |



